sensor_id;sensor_type;location;lat;lon;timestamp;P1;durP1;ratioP1;P2;durP2;ratioP2
51578;SDS011;47998;53.242;6.386;2022-10-17T00:01:44;16.50;;;5.32;;
51578;SDS011;47998;53.242;6.386;2022-10-17T00:04:10;14.18;;;4.85;;
51578;SDS011;47998;53.242;6.386;2022-10-17T00:06:36;16.63;;;5.68;;
51578;SDS011;47998;53.242;6.386;2022-10-17T00:09:02;12.70;;;4.80;;
51578;SDS011;47998;53.242;6.386;2022-10-17T00:11:28;17.98;;;5.45;;
51578;SDS011;47998;53.242;6.386;2022-10-17T00:13:54;15.15;;;4.93;;
51578;SDS011;47998;53.242;6.386;2022-10-17T00:16:24;17.38;;;5.30;;
51578;SDS011;47998;53.242;6.386;2022-10-17T00:18:51;15.88;;;4.72;;
51578;SDS011;47998;53.242;6.386;2022-10-17T00:21:17;19.25;;;5.70;;
51578;SDS011;47998;53.242;6.386;2022-10-17T00:23:44;14.25;;;5.18;;
51578;SDS011;47998;53.242;6.386;2022-10-17T00:26:10;15.00;;;4.57;;
51578;SDS011;47998;53.242;6.386;2022-10-17T00:28:36;17.88;;;4.80;;
51578;SDS011;47998;53.242;6.386;2022-10-17T00:31:02;15.93;;;4.25;;
51578;SDS011;47998;53.242;6.386;2022-10-17T00:33:30;19.73;;;5.05;;
51578;SDS011;47998;53.242;6.386;2022-10-17T00:36:19;12.13;;;4.22;;
51578;SDS011;47998;53.242;6.386;2022-10-17T00:38:44;13.30;;;4.63;;
51578;SDS011;47998;53.242;6.386;2022-10-17T00:41:13;11.00;;;3.45;;
51578;SDS011;47998;53.242;6.386;2022-10-17T00:46:17;11.25;;;3.67;;
51578;SDS011;47998;53.242;6.386;2022-10-17T00:48:44;14.10;;;3.65;;
51578;SDS011;47998;53.242;6.386;2022-10-17T00:51:11;13.77;;;3.47;;
51578;SDS011;47998;53.242;6.386;2022-10-17T00:53:37;16.60;;;4.20;;
51578;SDS011;47998;53.242;6.386;2022-10-17T00:56:04;12.50;;;3.70;;
51578;SDS011;47998;53.242;6.386;2022-10-17T00:58:29;9.77;;;3.30;;
51578;SDS011;47998;53.242;6.386;2022-10-17T01:00:55;13.10;;;3.10;;
51578;SDS011;47998;53.242;6.386;2022-10-17T01:03:21;15.32;;;3.63;;
51578;SDS011;47998;53.242;6.386;2022-10-17T01:05:47;11.77;;;4.60;;
51578;SDS011;47998;53.242;6.386;2022-10-17T01:08:12;12.00;;;4.05;;
51578;SDS011;47998;53.242;6.386;2022-10-17T01:10:48;13.55;;;4.25;;
51578;SDS011;47998;53.242;6.386;2022-10-17T01:17:01;11.20;;;4.47;;
51578;SDS011;47998;53.242;6.386;2022-10-17T01:22:17;14.73;;;5.00;;
51578;SDS011;47998;53.242;6.386;2022-10-17T01:24:50;14.52;;;4.78;;
51578;SDS011;47998;53.242;6.386;2022-10-17T01:27:59;12.98;;;4.57;;
51578;SDS011;47998;53.242;6.386;2022-10-17T01:39:09;11.57;;;3.72;;
51578;SDS011;47998;53.242;6.386;2022-10-17T01:41:48;11.98;;;3.70;;
51578;SDS011;47998;53.242;6.386;2022-10-17T01:47:20;11.13;;;3.60;;
51578;SDS011;47998;53.242;6.386;2022-10-17T01:49:50;10.95;;;4.03;;
51578;SDS011;47998;53.242;6.386;2022-10-17T01:52:26;16.42;;;4.70;;
51578;SDS011;47998;53.242;6.386;2022-10-17T01:55:03;12.00;;;4.47;;
51578;SDS011;47998;53.242;6.386;2022-10-17T01:57:45;13.27;;;4.30;;
51578;SDS011;47998;53.242;6.386;2022-10-17T02:00:19;10.57;;;4.32;;
51578;SDS011;47998;53.242;6.386;2022-10-17T02:02:47;9.90;;;4.38;;
51578;SDS011;47998;53.242;6.386;2022-10-17T02:05:17;9.75;;;4.90;;
51578;SDS011;47998;53.242;6.386;2022-10-17T02:07:48;11.20;;;4.00;;
51578;SDS011;47998;53.242;6.386;2022-10-17T02:10:38;12.07;;;4.22;;
51578;SDS011;47998;53.242;6.386;2022-10-17T02:15:43;10.05;;;4.93;;
51578;SDS011;47998;53.242;6.386;2022-10-17T02:26:46;11.45;;;4.93;;
51578;SDS011;47998;53.242;6.386;2022-10-17T02:29:29;9.80;;;5.18;;
51578;SDS011;47998;53.242;6.386;2022-10-17T02:32:06;13.82;;;5.07;;
51578;SDS011;47998;53.242;6.386;2022-10-17T02:34:38;14.77;;;6.18;;
51578;SDS011;47998;53.242;6.386;2022-10-17T02:37:08;16.90;;;5.53;;
51578;SDS011;47998;53.242;6.386;2022-10-17T02:39:38;12.85;;;5.35;;
51578;SDS011;47998;53.242;6.386;2022-10-17T02:42:05;15.00;;;5.53;;
51578;SDS011;47998;53.242;6.386;2022-10-17T02:44:34;9.85;;;5.75;;
51578;SDS011;47998;53.242;6.386;2022-10-17T02:47:16;12.23;;;6.47;;
51578;SDS011;47998;53.242;6.386;2022-10-17T02:49:50;13.98;;;6.30;;
51578;SDS011;47998;53.242;6.386;2022-10-17T03:00:03;12.77;;;6.45;;
51578;SDS011;47998;53.242;6.386;2022-10-17T03:02:37;16.65;;;7.85;;
51578;SDS011;47998;53.242;6.386;2022-10-17T03:05:04;15.00;;;7.10;;
51578;SDS011;47998;53.242;6.386;2022-10-17T03:07:30;16.95;;;8.27;;
51578;SDS011;47998;53.242;6.386;2022-10-17T03:09:55;13.18;;;7.55;;
51578;SDS011;47998;53.242;6.386;2022-10-17T03:12:21;14.50;;;7.30;;
51578;SDS011;47998;53.242;6.386;2022-10-17T03:14:47;15.43;;;7.47;;
51578;SDS011;47998;53.242;6.386;2022-10-17T03:17:12;11.80;;;7.72;;
51578;SDS011;47998;53.242;6.386;2022-10-17T03:19:38;12.63;;;7.90;;
51578;SDS011;47998;53.242;6.386;2022-10-17T03:22:04;14.82;;;8.32;;
51578;SDS011;47998;53.242;6.386;2022-10-17T03:24:29;14.15;;;8.35;;
51578;SDS011;47998;53.242;6.386;2022-10-17T03:26:55;16.17;;;8.27;;
51578;SDS011;47998;53.242;6.386;2022-10-17T03:29:20;11.40;;;8.02;;
51578;SDS011;47998;53.242;6.386;2022-10-17T03:31:46;11.35;;;8.63;;
51578;SDS011;47998;53.242;6.386;2022-10-17T03:34:12;15.27;;;9.90;;
51578;SDS011;47998;53.242;6.386;2022-10-17T03:36:40;12.38;;;8.73;;
51578;SDS011;47998;53.242;6.386;2022-10-17T03:39:06;12.45;;;8.27;;
51578;SDS011;47998;53.242;6.386;2022-10-17T03:41:32;11.73;;;9.20;;
51578;SDS011;47998;53.242;6.386;2022-10-17T03:43:57;17.92;;;9.07;;
51578;SDS011;47998;53.242;6.386;2022-10-17T03:46:23;9.93;;;8.75;;
51578;SDS011;47998;53.242;6.386;2022-10-17T03:48:49;15.63;;;9.25;;
51578;SDS011;47998;53.242;6.386;2022-10-17T03:51:15;17.25;;;9.45;;
51578;SDS011;47998;53.242;6.386;2022-10-17T03:53:40;20.20;;;10.52;;
51578;SDS011;47998;53.242;6.386;2022-10-17T03:56:10;18.08;;;9.63;;
51578;SDS011;47998;53.242;6.386;2022-10-17T03:58:43;13.35;;;10.45;;
51578;SDS011;47998;53.242;6.386;2022-10-17T04:01:10;14.93;;;10.52;;
51578;SDS011;47998;53.242;6.386;2022-10-17T04:03:37;16.92;;;11.30;;
51578;SDS011;47998;53.242;6.386;2022-10-17T04:06:03;15.35;;;10.90;;
51578;SDS011;47998;53.242;6.386;2022-10-17T04:08:30;13.43;;;10.30;;
51578;SDS011;47998;53.242;6.386;2022-10-17T04:10:57;14.60;;;11.10;;
51578;SDS011;47998;53.242;6.386;2022-10-17T04:13:27;18.33;;;11.75;;
51578;SDS011;47998;53.242;6.386;2022-10-17T04:15:54;18.17;;;12.40;;
51578;SDS011;47998;53.242;6.386;2022-10-17T04:18:20;17.95;;;13.10;;
51578;SDS011;47998;53.242;6.386;2022-10-17T04:20:46;15.80;;;12.38;;
51578;SDS011;47998;53.242;6.386;2022-10-17T04:23:12;18.90;;;14.05;;
51578;SDS011;47998;53.242;6.386;2022-10-17T04:25:37;20.20;;;14.10;;
51578;SDS011;47998;53.242;6.386;2022-10-17T04:28:03;18.63;;;13.90;;
51578;SDS011;47998;53.242;6.386;2022-10-17T04:30:29;16.58;;;13.50;;
51578;SDS011;47998;53.242;6.386;2022-10-17T04:32:54;20.23;;;14.68;;
51578;SDS011;47998;53.242;6.386;2022-10-17T04:35:20;21.23;;;14.60;;
51578;SDS011;47998;53.242;6.386;2022-10-17T04:37:46;16.20;;;13.75;;
51578;SDS011;47998;53.242;6.386;2022-10-17T04:40:11;19.08;;;13.98;;
51578;SDS011;47998;53.242;6.386;2022-10-17T04:42:37;23.85;;;14.95;;
51578;SDS011;47998;53.242;6.386;2022-10-17T04:45:03;19.65;;;14.70;;
51578;SDS011;47998;53.242;6.386;2022-10-17T04:47:29;23.90;;;15.70;;
51578;SDS011;47998;53.242;6.386;2022-10-17T04:49:55;21.67;;;15.93;;
51578;SDS011;47998;53.242;6.386;2022-10-17T04:52:21;24.48;;;16.30;;
51578;SDS011;47998;53.242;6.386;2022-10-17T04:54:47;23.40;;;16.38;;
51578;SDS011;47998;53.242;6.386;2022-10-17T04:57:13;27.48;;;17.33;;
51578;SDS011;47998;53.242;6.386;2022-10-17T04:59:39;21.30;;;16.35;;
51578;SDS011;47998;53.242;6.386;2022-10-17T05:02:04;21.02;;;16.52;;
51578;SDS011;47998;53.242;6.386;2022-10-17T05:04:31;24.85;;;16.65;;
51578;SDS011;47998;53.242;6.386;2022-10-17T05:06:56;25.58;;;17.02;;
51578;SDS011;47998;53.242;6.386;2022-10-17T05:09:22;23.52;;;16.35;;
51578;SDS011;47998;53.242;6.386;2022-10-17T05:11:48;21.27;;;17.38;;
51578;SDS011;47998;53.242;6.386;2022-10-17T05:14:14;22.00;;;15.70;;
51578;SDS011;47998;53.242;6.386;2022-10-17T05:16:40;21.42;;;16.77;;
51578;SDS011;47998;53.242;6.386;2022-10-17T05:19:05;20.77;;;17.48;;
51578;SDS011;47998;53.242;6.386;2022-10-17T05:21:31;24.75;;;17.27;;
51578;SDS011;47998;53.242;6.386;2022-10-17T05:23:57;23.98;;;16.92;;
51578;SDS011;47998;53.242;6.386;2022-10-17T05:26:23;24.15;;;18.30;;
51578;SDS011;47998;53.242;6.386;2022-10-17T05:28:50;26.95;;;18.08;;
51578;SDS011;47998;53.242;6.386;2022-10-17T05:31:16;26.65;;;16.92;;
51578;SDS011;47998;53.242;6.386;2022-10-17T05:33:42;22.88;;;18.70;;
51578;SDS011;47998;53.242;6.386;2022-10-17T05:36:08;22.50;;;18.73;;
51578;SDS011;47998;53.242;6.386;2022-10-17T05:38:34;25.27;;;18.58;;
51578;SDS011;47998;53.242;6.386;2022-10-17T05:41:01;25.42;;;18.85;;
51578;SDS011;47998;53.242;6.386;2022-10-17T05:43:28;21.52;;;17.83;;
51578;SDS011;47998;53.242;6.386;2022-10-17T05:45:54;24.00;;;17.50;;
51578;SDS011;47998;53.242;6.386;2022-10-17T05:48:20;27.05;;;18.70;;
51578;SDS011;47998;53.242;6.386;2022-10-17T05:50:47;28.20;;;19.95;;
51578;SDS011;47998;53.242;6.386;2022-10-17T05:53:13;25.65;;;20.55;;
51578;SDS011;47998;53.242;6.386;2022-10-17T05:55:39;29.73;;;20.20;;
51578;SDS011;47998;53.242;6.386;2022-10-17T05:58:05;30.92;;;21.02;;
51578;SDS011;47998;53.242;6.386;2022-10-17T06:00:31;28.67;;;20.73;;
51578;SDS011;47998;53.242;6.386;2022-10-17T06:02:57;28.80;;;20.55;;
51578;SDS011;47998;53.242;6.386;2022-10-17T06:05:22;31.60;;;21.65;;
51578;SDS011;47998;53.242;6.386;2022-10-17T06:07:48;28.42;;;20.90;;
51578;SDS011;47998;53.242;6.386;2022-10-17T06:10:16;27.80;;;19.67;;
51578;SDS011;47998;53.242;6.386;2022-10-17T06:12:43;26.67;;;20.30;;
51578;SDS011;47998;53.242;6.386;2022-10-17T06:15:09;26.38;;;20.92;;
51578;SDS011;47998;53.242;6.386;2022-10-17T06:17:35;32.72;;;20.95;;
51578;SDS011;47998;53.242;6.386;2022-10-17T06:20:01;30.00;;;21.77;;
51578;SDS011;47998;53.242;6.386;2022-10-17T06:22:27;28.67;;;20.40;;
51578;SDS011;47998;53.242;6.386;2022-10-17T06:24:53;26.63;;;20.63;;
51578;SDS011;47998;53.242;6.386;2022-10-17T06:27:19;25.88;;;20.92;;
51578;SDS011;47998;53.242;6.386;2022-10-17T06:29:45;26.30;;;20.25;;
51578;SDS011;47998;53.242;6.386;2022-10-17T06:32:12;27.08;;;20.10;;
51578;SDS011;47998;53.242;6.386;2022-10-17T06:34:38;27.83;;;20.00;;
51578;SDS011;47998;53.242;6.386;2022-10-17T06:37:04;27.63;;;19.70;;
51578;SDS011;47998;53.242;6.386;2022-10-17T06:39:30;34.63;;;20.55;;
51578;SDS011;47998;53.242;6.386;2022-10-17T06:42:01;27.15;;;19.80;;
51578;SDS011;47998;53.242;6.386;2022-10-17T06:44:28;28.58;;;18.35;;
51578;SDS011;47998;53.242;6.386;2022-10-17T06:46:56;27.90;;;21.00;;
51578;SDS011;47998;53.242;6.386;2022-10-17T06:49:23;33.95;;;19.42;;
51578;SDS011;47998;53.242;6.386;2022-10-17T06:51:49;31.23;;;18.45;;
51578;SDS011;47998;53.242;6.386;2022-10-17T06:54:15;27.17;;;19.67;;
51578;SDS011;47998;53.242;6.386;2022-10-17T06:56:40;23.77;;;17.65;;
51578;SDS011;47998;53.242;6.386;2022-10-17T06:59:07;25.02;;;18.10;;
51578;SDS011;47998;53.242;6.386;2022-10-17T07:01:33;24.30;;;18.60;;
51578;SDS011;47998;53.242;6.386;2022-10-17T07:03:59;22.88;;;17.55;;
51578;SDS011;47998;53.242;6.386;2022-10-17T07:06:25;27.30;;;18.55;;
51578;SDS011;47998;53.242;6.386;2022-10-17T07:08:51;22.33;;;17.55;;
51578;SDS011;47998;53.242;6.386;2022-10-17T07:11:18;27.00;;;18.65;;
51578;SDS011;47998;53.242;6.386;2022-10-17T07:13:45;27.90;;;17.17;;
51578;SDS011;47998;53.242;6.386;2022-10-17T07:16:12;21.02;;;17.15;;
51578;SDS011;47998;53.242;6.386;2022-10-17T07:18:38;27.23;;;17.13;;
51578;SDS011;47998;53.242;6.386;2022-10-17T07:21:05;22.15;;;16.95;;
51578;SDS011;47998;53.242;6.386;2022-10-17T07:23:33;21.27;;;15.82;;
51578;SDS011;47998;53.242;6.386;2022-10-17T07:26:02;20.30;;;16.35;;
51578;SDS011;47998;53.242;6.386;2022-10-17T07:28:33;20.67;;;15.25;;
51578;SDS011;47998;53.242;6.386;2022-10-17T07:31:04;18.67;;;14.48;;
51578;SDS011;47998;53.242;6.386;2022-10-17T07:33:41;21.50;;;13.93;;
51578;SDS011;47998;53.242;6.386;2022-10-17T07:36:07;18.58;;;14.20;;
51578;SDS011;47998;53.242;6.386;2022-10-17T07:38:33;17.10;;;14.75;;
51578;SDS011;47998;53.242;6.386;2022-10-17T07:41:01;17.08;;;13.82;;
51578;SDS011;47998;53.242;6.386;2022-10-17T07:43:28;19.05;;;13.05;;
51578;SDS011;47998;53.242;6.386;2022-10-17T07:45:55;19.10;;;12.40;;
51578;SDS011;47998;53.242;6.386;2022-10-17T07:48:21;20.13;;;13.20;;
51578;SDS011;47998;53.242;6.386;2022-10-17T07:50:48;14.57;;;13.10;;
51578;SDS011;47998;53.242;6.386;2022-10-17T07:53:14;17.30;;;13.10;;
51578;SDS011;47998;53.242;6.386;2022-10-17T07:55:41;17.70;;;12.77;;
51578;SDS011;47998;53.242;6.386;2022-10-17T07:58:07;13.05;;;11.18;;
51578;SDS011;47998;53.242;6.386;2022-10-17T08:00:33;13.82;;;10.88;;
51578;SDS011;47998;53.242;6.386;2022-10-17T08:03:00;15.30;;;11.50;;
51578;SDS011;47998;53.242;6.386;2022-10-17T08:05:27;14.02;;;11.55;;
51578;SDS011;47998;53.242;6.386;2022-10-17T08:07:53;18.10;;;11.07;;
51578;SDS011;47998;53.242;6.386;2022-10-17T08:10:19;13.35;;;9.95;;
51578;SDS011;47998;53.242;6.386;2022-10-17T08:12:45;11.88;;;9.90;;
51578;SDS011;47998;53.242;6.386;2022-10-17T08:15:11;14.98;;;10.25;;
51578;SDS011;47998;53.242;6.386;2022-10-17T08:17:37;13.90;;;9.57;;
51578;SDS011;47998;53.242;6.386;2022-10-17T08:20:03;11.18;;;8.80;;
51578;SDS011;47998;53.242;6.386;2022-10-17T08:22:30;13.70;;;9.48;;
51578;SDS011;47998;53.242;6.386;2022-10-17T08:24:56;15.80;;;9.48;;
51578;SDS011;47998;53.242;6.386;2022-10-17T08:27:22;12.95;;;9.23;;
51578;SDS011;47998;53.242;6.386;2022-10-17T08:29:51;9.75;;;7.97;;
51578;SDS011;47998;53.242;6.386;2022-10-17T08:32:20;13.88;;;8.55;;
51578;SDS011;47998;53.242;6.386;2022-10-17T08:34:49;12.80;;;8.35;;
51578;SDS011;47998;53.242;6.386;2022-10-17T08:37:14;13.35;;;8.95;;
51578;SDS011;47998;53.242;6.386;2022-10-17T08:39:40;10.98;;;8.55;;
51578;SDS011;47998;53.242;6.386;2022-10-17T08:47:23;9.07;;;6.72;;
51578;SDS011;47998;53.242;6.386;2022-10-17T08:49:55;11.13;;;8.00;;
51578;SDS011;47998;53.242;6.386;2022-10-17T08:52:45;12.02;;;7.28;;
51578;SDS011;47998;53.242;6.386;2022-10-17T08:57:46;10.60;;;7.40;;
51578;SDS011;47998;53.242;6.386;2022-10-17T09:00:16;12.65;;;7.70;;
51578;SDS011;47998;53.242;6.386;2022-10-17T09:02:48;14.00;;;7.43;;
51578;SDS011;47998;53.242;6.386;2022-10-17T09:11:03;7.90;;;6.75;;
51578;SDS011;47998;53.242;6.386;2022-10-17T09:13:46;8.05;;;5.97;;
51578;SDS011;47998;53.242;6.386;2022-10-17T09:19:15;8.98;;;6.15;;
51578;SDS011;47998;53.242;6.386;2022-10-17T09:21:52;11.45;;;7.13;;
51578;SDS011;47998;53.242;6.386;2022-10-17T09:26:57;15.68;;;9.20;;
51578;SDS011;47998;53.242;6.386;2022-10-17T09:29:24;13.63;;;7.93;;
51578;SDS011;47998;53.242;6.386;2022-10-17T09:31:53;9.73;;;7.05;;
51578;SDS011;47998;53.242;6.386;2022-10-17T09:34:24;15.50;;;8.40;;
51578;SDS011;47998;53.242;6.386;2022-10-17T09:36:52;13.13;;;8.18;;
51578;SDS011;47998;53.242;6.386;2022-10-17T09:39:19;12.73;;;8.27;;
51578;SDS011;47998;53.242;6.386;2022-10-17T09:41:49;14.10;;;8.02;;
51578;SDS011;47998;53.242;6.386;2022-10-17T09:44:33;11.25;;;7.80;;
51578;SDS011;47998;53.242;6.386;2022-10-17T09:49:55;12.93;;;9.38;;
51578;SDS011;47998;53.242;6.386;2022-10-17T09:52:33;16.73;;;10.73;;
51578;SDS011;47998;53.242;6.386;2022-10-17T09:57:50;13.50;;;10.70;;
51578;SDS011;47998;53.242;6.386;2022-10-17T10:00:25;15.63;;;9.52;;
51578;SDS011;47998;53.242;6.386;2022-10-17T10:03:07;14.32;;;11.85;;
51578;SDS011;47998;53.242;6.386;2022-10-17T10:08:31;17.70;;;12.10;;
51578;SDS011;47998;53.242;6.386;2022-10-17T10:11:03;20.70;;;12.18;;
51578;SDS011;47998;53.242;6.386;2022-10-17T10:13:31;18.67;;;14.10;;
51578;SDS011;47998;53.242;6.386;2022-10-17T10:16:18;20.75;;;14.25;;
51578;SDS011;47998;53.242;6.386;2022-10-17T10:18:46;13.00;;;11.52;;
51578;SDS011;47998;53.242;6.386;2022-10-17T10:23:42;16.88;;;11.52;;
51578;SDS011;47998;53.242;6.386;2022-10-17T10:26:16;19.48;;;13.05;;
51578;SDS011;47998;53.242;6.386;2022-10-17T10:28:53;22.48;;;14.05;;
51578;SDS011;47998;53.242;6.386;2022-10-17T10:31:25;25.40;;;15.68;;
51578;SDS011;47998;53.242;6.386;2022-10-17T10:33:53;30.15;;;15.00;;
51578;SDS011;47998;53.242;6.386;2022-10-17T10:36:19;18.10;;;14.18;;
51578;SDS011;47998;53.242;6.386;2022-10-17T10:38:54;20.10;;;13.02;;
51578;SDS011;47998;53.242;6.386;2022-10-17T10:41:21;19.05;;;13.25;;
51578;SDS011;47998;53.242;6.386;2022-10-17T10:43:48;19.40;;;12.38;;
51578;SDS011;47998;53.242;6.386;2022-10-17T10:49:06;18.75;;;13.60;;
51578;SDS011;47998;53.242;6.386;2022-10-17T10:51:53;16.98;;;12.95;;
51578;SDS011;47998;53.242;6.386;2022-10-17T10:54:28;24.02;;;15.35;;
51578;SDS011;47998;53.242;6.386;2022-10-17T10:57:01;18.02;;;11.43;;
51578;SDS011;47998;53.242;6.386;2022-10-17T10:59:35;38.60;;;17.15;;
51578;SDS011;47998;53.242;6.386;2022-10-17T11:02:13;20.58;;;11.23;;
51578;SDS011;47998;53.242;6.386;2022-10-17T11:04:48;27.15;;;15.30;;
51578;SDS011;47998;53.242;6.386;2022-10-17T11:15:46;24.63;;;16.38;;
51578;SDS011;47998;53.242;6.386;2022-10-17T11:20:59;20.20;;;14.40;;
51578;SDS011;47998;53.242;6.386;2022-10-17T11:23:42;18.38;;;12.18;;
51578;SDS011;47998;53.242;6.386;2022-10-17T11:26:25;15.27;;;9.88;;
51578;SDS011;47998;53.242;6.386;2022-10-17T11:28:53;26.65;;;15.57;;
51578;SDS011;47998;53.242;6.386;2022-10-17T11:31:26;17.37;;;12.90;;
51578;SDS011;47998;53.242;6.386;2022-10-17T11:34:00;19.63;;;11.35;;
51578;SDS011;47998;53.242;6.386;2022-10-17T11:36:30;28.08;;;16.75;;
51578;SDS011;47998;53.242;6.386;2022-10-17T11:39:02;16.15;;;11.88;;
51578;SDS011;47998;53.242;6.386;2022-10-17T11:41:38;23.48;;;13.77;;
51578;SDS011;47998;53.242;6.386;2022-10-17T11:47:10;17.05;;;11.02;;
51578;SDS011;47998;53.242;6.386;2022-10-17T11:49:53;20.83;;;10.55;;
51578;SDS011;47998;53.242;6.386;2022-10-17T11:52:37;14.90;;;10.18;;
51578;SDS011;47998;53.242;6.386;2022-10-17T11:55:27;17.15;;;12.23;;
51578;SDS011;47998;53.242;6.386;2022-10-17T12:00:50;17.77;;;9.20;;
51578;SDS011;47998;53.242;6.386;2022-10-17T12:06:15;11.43;;;7.78;;
51578;SDS011;47998;53.242;6.386;2022-10-17T12:09:00;12.90;;;8.35;;
51578;SDS011;47998;53.242;6.386;2022-10-17T12:17:29;11.43;;;6.47;;
51578;SDS011;47998;53.242;6.386;2022-10-17T12:22:46;8.38;;;5.28;;
51578;SDS011;47998;53.242;6.386;2022-10-17T12:25:18;9.10;;;5.10;;
51578;SDS011;47998;53.242;6.386;2022-10-17T12:27:50;8.90;;;6.13;;
51578;SDS011;47998;53.242;6.386;2022-10-17T12:30:47;11.00;;;5.53;;
51578;SDS011;47998;53.242;6.386;2022-10-17T12:38:47;11.65;;;6.80;;
51578;SDS011;47998;53.242;6.386;2022-10-17T12:41:13;9.43;;;5.90;;
51578;SDS011;47998;53.242;6.386;2022-10-17T12:52:05;9.57;;;5.80;;
51578;SDS011;47998;53.242;6.386;2022-10-17T12:54:41;13.07;;;6.20;;
51578;SDS011;47998;53.242;6.386;2022-10-17T12:58:13;13.38;;;6.63;;
51578;SDS011;47998;53.242;6.386;2022-10-17T13:02:52;14.93;;;6.32;;
51578;SDS011;47998;53.242;6.386;2022-10-17T13:07:51;9.98;;;5.32;;
51578;SDS011;47998;53.242;6.386;2022-10-17T13:10:20;8.25;;;5.70;;
51578;SDS011;47998;53.242;6.386;2022-10-17T13:12:49;10.20;;;6.10;;
51578;SDS011;47998;53.242;6.386;2022-10-17T13:15:17;9.02;;;4.88;;
51578;SDS011;47998;53.242;6.386;2022-10-17T13:17:44;6.40;;;4.25;;
51578;SDS011;47998;53.242;6.386;2022-10-17T13:20:19;10.10;;;4.82;;
51578;SDS011;47998;53.242;6.386;2022-10-17T13:22:49;11.05;;;4.60;;
51578;SDS011;47998;53.242;6.386;2022-10-17T13:25:17;8.05;;;4.18;;
51578;SDS011;47998;53.242;6.386;2022-10-17T13:27:45;18.92;;;5.35;;
51578;SDS011;47998;53.242;6.386;2022-10-17T13:30:22;12.57;;;4.93;;
51578;SDS011;47998;53.242;6.386;2022-10-17T13:32:53;12.80;;;6.00;;
51578;SDS011;47998;53.242;6.386;2022-10-17T13:35:26;10.73;;;5.85;;
51578;SDS011;47998;53.242;6.386;2022-10-17T13:37:58;19.05;;;7.80;;
51578;SDS011;47998;53.242;6.386;2022-10-17T13:40:26;7.25;;;4.90;;
51578;SDS011;47998;53.242;6.386;2022-10-17T13:42:54;8.85;;;6.28;;
51578;SDS011;47998;53.242;6.386;2022-10-17T13:45:29;9.70;;;6.55;;
51578;SDS011;47998;53.242;6.386;2022-10-17T13:48:00;14.52;;;8.15;;
51578;SDS011;47998;53.242;6.386;2022-10-17T13:53:06;11.40;;;6.70;;
51578;SDS011;47998;53.242;6.386;2022-10-17T13:55:49;11.50;;;5.40;;
51578;SDS011;47998;53.242;6.386;2022-10-17T13:58:28;11.98;;;6.55;;
51578;SDS011;47998;53.242;6.386;2022-10-17T14:01:03;7.95;;;4.35;;
51578;SDS011;47998;53.242;6.386;2022-10-17T14:03:29;20.83;;;5.60;;
51578;SDS011;47998;53.242;6.386;2022-10-17T14:11:35;9.50;;;3.67;;
51578;SDS011;47998;53.242;6.386;2022-10-17T14:14:06;10.63;;;4.65;;
51578;SDS011;47998;53.242;6.386;2022-10-17T14:16:44;8.77;;;3.97;;
51578;SDS011;47998;53.242;6.386;2022-10-17T14:19:32;5.35;;;3.60;;
51578;SDS011;47998;53.242;6.386;2022-10-17T14:22:44;18.10;;;4.68;;
51578;SDS011;47998;53.242;6.386;2022-10-17T14:24:44;7.82;;;4.03;;
51578;SDS011;47998;53.242;6.386;2022-10-17T14:27:30;9.18;;;4.40;;
51578;SDS011;47998;53.242;6.386;2022-10-17T14:30:06;8.57;;;4.28;;
51578;SDS011;47998;53.242;6.386;2022-10-17T14:32:59;10.15;;;3.75;;
51578;SDS011;47998;53.242;6.386;2022-10-17T14:35:27;12.77;;;5.80;;
51578;SDS011;47998;53.242;6.386;2022-10-17T14:37:57;17.58;;;4.82;;
51578;SDS011;47998;53.242;6.386;2022-10-17T14:40:26;15.43;;;4.28;;
51578;SDS011;47998;53.242;6.386;2022-10-17T14:42:54;13.40;;;4.07;;
51578;SDS011;47998;53.242;6.386;2022-10-17T14:45:30;8.60;;;4.10;;
51578;SDS011;47998;53.242;6.386;2022-10-17T14:48:06;5.63;;;3.05;;
51578;SDS011;47998;53.242;6.386;2022-10-17T14:50:36;8.48;;;3.70;;
51578;SDS011;47998;53.242;6.386;2022-10-17T14:55:52;6.68;;;3.40;;
51578;SDS011;47998;53.242;6.386;2022-10-17T14:58:26;7.65;;;3.50;;
51578;SDS011;47998;53.242;6.386;2022-10-17T15:00:54;11.35;;;3.45;;
51578;SDS011;47998;53.242;6.386;2022-10-17T15:03:20;13.98;;;3.60;;
51578;SDS011;47998;53.242;6.386;2022-10-17T15:05:46;13.77;;;3.20;;
51578;SDS011;47998;53.242;6.386;2022-10-17T15:08:14;8.18;;;2.80;;
51578;SDS011;47998;53.242;6.386;2022-10-17T15:10:42;8.18;;;4.07;;
51578;SDS011;47998;53.242;6.386;2022-10-17T15:13:10;5.22;;;2.55;;
51578;SDS011;47998;53.242;6.386;2022-10-17T15:15:37;11.20;;;3.47;;
51578;SDS011;47998;53.242;6.386;2022-10-17T15:18:04;7.55;;;2.92;;
51578;SDS011;47998;53.242;6.386;2022-10-17T15:20:31;13.07;;;3.35;;
51578;SDS011;47998;53.242;6.386;2022-10-17T15:22:59;8.65;;;2.65;;
51578;SDS011;47998;53.242;6.386;2022-10-17T15:25:26;8.60;;;2.40;;
51578;SDS011;47998;53.242;6.386;2022-10-17T15:27:53;7.68;;;2.63;;
51578;SDS011;47998;53.242;6.386;2022-10-17T15:30:26;6.30;;;2.92;;
51578;SDS011;47998;53.242;6.386;2022-10-17T15:32:56;6.57;;;2.30;;
51578;SDS011;47998;53.242;6.386;2022-10-17T15:35:23;8.90;;;2.83;;
51578;SDS011;47998;53.242;6.386;2022-10-17T15:37:50;9.05;;;2.78;;
51578;SDS011;47998;53.242;6.386;2022-10-17T15:40:23;14.95;;;3.65;;
51578;SDS011;47998;53.242;6.386;2022-10-17T15:42:53;7.00;;;2.67;;
51578;SDS011;47998;53.242;6.386;2022-10-17T15:45:20;10.25;;;2.72;;
51578;SDS011;47998;53.242;6.386;2022-10-17T15:47:50;8.73;;;2.75;;
51578;SDS011;47998;53.242;6.386;2022-10-17T15:50:17;11.50;;;2.70;;
51578;SDS011;47998;53.242;6.386;2022-10-17T15:52:44;10.55;;;2.78;;
51578;SDS011;47998;53.242;6.386;2022-10-17T15:55:11;11.48;;;2.67;;
51578;SDS011;47998;53.242;6.386;2022-10-17T15:57:37;7.35;;;2.70;;
51578;SDS011;47998;53.242;6.386;2022-10-17T16:00:07;9.70;;;2.90;;
51578;SDS011;47998;53.242;6.386;2022-10-17T16:02:44;8.20;;;3.60;;
51578;SDS011;47998;53.242;6.386;2022-10-17T16:07:47;7.30;;;2.53;;
51578;SDS011;47998;53.242;6.386;2022-10-17T16:10:14;5.35;;;3.22;;
51578;SDS011;47998;53.242;6.386;2022-10-17T16:12:40;5.22;;;2.58;;
51578;SDS011;47998;53.242;6.386;2022-10-17T16:15:11;15.18;;;3.55;;
51578;SDS011;47998;53.242;6.386;2022-10-17T16:17:39;25.95;;;6.13;;
51578;SDS011;47998;53.242;6.386;2022-10-17T16:20:05;13.57;;;3.67;;
51578;SDS011;47998;53.242;6.386;2022-10-17T16:22:32;5.28;;;3.38;;
51578;SDS011;47998;53.242;6.386;2022-10-17T16:25:05;20.20;;;4.07;;
51578;SDS011;47998;53.242;6.386;2022-10-17T16:27:43;12.70;;;3.80;;
51578;SDS011;47998;53.242;6.386;2022-10-17T16:30:10;14.63;;;3.83;;
51578;SDS011;47998;53.242;6.386;2022-10-17T16:32:36;8.90;;;4.05;;
51578;SDS011;47998;53.242;6.386;2022-10-17T16:35:03;16.60;;;5.10;;
51578;SDS011;47998;53.242;6.386;2022-10-17T16:37:29;13.02;;;5.60;;
51578;SDS011;47998;53.242;6.386;2022-10-17T16:39:55;7.93;;;3.70;;
51578;SDS011;47998;53.242;6.386;2022-10-17T16:42:21;8.68;;;4.15;;
51578;SDS011;47998;53.242;6.386;2022-10-17T16:44:47;9.63;;;4.47;;
51578;SDS011;47998;53.242;6.386;2022-10-17T16:47:14;9.43;;;5.07;;
51578;SDS011;47998;53.242;6.386;2022-10-17T16:49:41;9.10;;;4.03;;
51578;SDS011;47998;53.242;6.386;2022-10-17T16:52:06;12.80;;;4.03;;
51578;SDS011;47998;53.242;6.386;2022-10-17T16:54:32;12.38;;;4.35;;
51578;SDS011;47998;53.242;6.386;2022-10-17T16:56:59;11.30;;;4.72;;
51578;SDS011;47998;53.242;6.386;2022-10-17T16:59:26;9.40;;;4.07;;